sensor_id;sensor_type;location;lat;lon;timestamp;pressure;altitude;pressure_sealevel;temperature;humidity
10881;BME280;5493;48.884;8.338;2023-12-20T00:01:51;100409.59;;;7.24;100.00
10881;BME280;5493;48.884;8.338;2023-12-20T00:04:17;100406.94;;;7.03;100.00
10881;BME280;5493;48.884;8.338;2023-12-20T00:06:45;100410.13;;;6.92;100.00
10881;BME280;5493;48.884;8.338;2023-12-20T00:09:12;100389.91;;;6.89;100.00
10881;BME280;5493;48.884;8.338;2023-12-20T00:11:38;100400.44;;;7.12;100.00
10881;BME280;5493;48.884;8.338;2023-12-20T00:14:07;100390.78;;;6.69;100.00
10881;BME280;5493;48.884;8.338;2023-12-20T00:16:33;100396.06;;;6.83;100.00
10881;BME280;5493;48.884;8.338;2023-12-20T00:19:00;100398.53;;;6.85;100.00
10881;BME280;5493;48.884;8.338;2023-12-20T00:21:27;100399.09;;;6.80;100.00
10881;BME280;5493;48.884;8.338;2023-12-20T00:23:54;100392.13;;;6.58;100.00
10881;BME280;5493;48.884;8.338;2023-12-20T00:26:21;100405.41;;;6.73;100.00
10881;BME280;5493;48.884;8.338;2023-12-20T00:28:47;100394.41;;;6.82;100.00
10881;BME280;5493;48.884;8.338;2023-12-20T00:31:14;100399.88;;;6.74;100.00
10881;BME280;5493;48.884;8.338;2023-12-20T00:33:40;100397.38;;;6.73;100.00
10881;BME280;5493;48.884;8.338;2023-12-20T00:36:08;100388.44;;;6.44;100.00
10881;BME280;5493;48.884;8.338;2023-12-20T00:38:35;100392.41;;;6.70;100.00
10881;BME280;5493;48.884;8.338;2023-12-20T00:41:03;100398.66;;;6.56;100.00
10881;BME280;5493;48.884;8.338;2023-12-20T00:43:29;100402.22;;;6.63;100.00
10881;BME280;5493;48.884;8.338;2023-12-20T00:45:56;100406.06;;;6.54;100.00
10881;BME280;5493;48.884;8.338;2023-12-20T00:48:25;100410.53;;;6.68;100.00
10881;BME280;5493;48.884;8.338;2023-12-20T00:50:52;100422.53;;;6.72;100.00
10881;BME280;5493;48.884;8.338;2023-12-20T00:53:18;100412.50;;;6.80;100.00
10881;BME280;5493;48.884;8.338;2023-12-20T00:55:45;100415.06;;;6.67;100.00
10881;BME280;5493;48.884;8.338;2023-12-20T00:58:13;100425.00;;;6.73;100.00
10881;BME280;5493;48.884;8.338;2023-12-20T01:00:40;100426.63;;;6.68;100.00
10881;BME280;5493;48.884;8.338;2023-12-20T01:03:07;100431.63;;;6.56;100.00
10881;BME280;5493;48.884;8.338;2023-12-20T01:05:34;100424.16;;;6.52;100.00
10881;BME280;5493;48.884;8.338;2023-12-20T01:08:00;100422.88;;;6.48;100.00
10881;BME280;5493;48.884;8.338;2023-12-20T01:10:28;100429.78;;;6.78;100.00
10881;BME280;5493;48.884;8.338;2023-12-20T01:12:54;100427.06;;;6.71;100.00
10881;BME280;5493;48.884;8.338;2023-12-20T01:15:22;100426.41;;;6.69;100.00
10881;BME280;5493;48.884;8.338;2023-12-20T01:17:49;100416.56;;;6.55;100.00
10881;BME280;5493;48.884;8.338;2023-12-20T01:20:16;100413.28;;;6.74;100.00
10881;BME280;5493;48.884;8.338;2023-12-20T01:22:45;100407.97;;;6.81;100.00
10881;BME280;5493;48.884;8.338;2023-12-20T01:25:12;100411.38;;;6.89;100.00
10881;BME280;5493;48.884;8.338;2023-12-20T01:27:38;100405.41;;;6.73;100.00
10881;BME280;5493;48.884;8.338;2023-12-20T01:30:05;100404.00;;;6.77;100.00
10881;BME280;5493;48.884;8.338;2023-12-20T01:32:33;100385.78;;;6.87;100.00
10881;BME280;5493;48.884;8.338;2023-12-20T01:35:00;100396.88;;;6.84;100.00
10881;BME280;5493;48.884;8.338;2023-12-20T01:37:26;100393.00;;;6.86;100.00
10881;BME280;5493;48.884;8.338;2023-12-20T01:39:54;100386.84;;;6.92;100.00
10881;BME280;5493;48.884;8.338;2023-12-20T01:42:21;100399.25;;;6.93;100.00
10881;BME280;5493;48.884;8.338;2023-12-20T01:44:47;100388.69;;;6.92;100.00
10881;BME280;5493;48.884;8.338;2023-12-20T01:47:14;100391.38;;;6.92;100.00
10881;BME280;5493;48.884;8.338;2023-12-20T01:49:42;100392.22;;;6.92;100.00
10881;BME280;5493;48.884;8.338;2023-12-20T01:52:09;100388.66;;;6.85;100.00
10881;BME280;5493;48.884;8.338;2023-12-20T01:54:36;100395.06;;;6.91;100.00
10881;BME280;5493;48.884;8.338;2023-12-20T01:57:04;100407.63;;;7.12;100.00
10881;BME280;5493;48.884;8.338;2023-12-20T01:59:32;100414.16;;;7.03;100.00
10881;BME280;5493;48.884;8.338;2023-12-20T02:02:00;100389.34;;;6.94;100.00
10881;BME280;5493;48.884;8.338;2023-12-20T02:04:27;100404.47;;;7.02;100.00
10881;BME280;5493;48.884;8.338;2023-12-20T02:06:56;100396.00;;;6.98;100.00
10881;BME280;5493;48.884;8.338;2023-12-20T02:09:22;100389.63;;;7.06;100.00
10881;BME280;5493;48.884;8.338;2023-12-20T02:11:49;100392.59;;;6.89;100.00
10881;BME280;5493;48.884;8.338;2023-12-20T02:14:16;100400.44;;;7.12;100.00
10881;BME280;5493;48.884;8.338;2023-12-20T02:16:43;100388.38;;;7.29;100.00
10881;BME280;5493;48.884;8.338;2023-12-20T02:19:13;100392.53;;;7.04;100.00
10881;BME280;5493;48.884;8.338;2023-12-20T02:21:41;100388.88;;;7.12;100.00
10881;BME280;5493;48.884;8.338;2023-12-20T02:24:08;100401.22;;;7.13;100.00
10881;BME280;5493;48.884;8.338;2023-12-20T02:26:34;100391.16;;;7.15;100.00
10881;BME280;5493;48.884;8.338;2023-12-20T02:29:01;100388.09;;;7.18;100.00
10881;BME280;5493;48.884;8.338;2023-12-20T02:31:28;100390.59;;;7.19;100.00
10881;BME280;5493;48.884;8.338;2023-12-20T02:33:55;100387.47;;;7.16;100.00
10881;BME280;5493;48.884;8.338;2023-12-20T02:36:21;100393.41;;;7.11;100.00
10881;BME280;5493;48.884;8.338;2023-12-20T02:38:49;100386.75;;;7.07;100.00
10881;BME280;5493;48.884;8.338;2023-12-20T02:41:16;100384.66;;;7.03;100.00
10881;BME280;5493;48.884;8.338;2023-12-20T02:43:43;100392.22;;;7.20;100.00
10881;BME280;5493;48.884;8.338;2023-12-20T02:46:09;100398.19;;;7.16;100.00
10881;BME280;5493;48.884;8.338;2023-12-20T02:48:36;100403.03;;;7.06;100.00
10881;BME280;5493;48.884;8.338;2023-12-20T02:51:03;100407.50;;;7.20;100.00
10881;BME280;5493;48.884;8.338;2023-12-20T02:53:29;100409.63;;;7.31;100.00
10881;BME280;5493;48.884;8.338;2023-12-20T02:55:57;100414.00;;;7.38;100.00
10881;BME280;5493;48.884;8.338;2023-12-20T02:58:24;100417.53;;;7.11;100.00
10881;BME280;5493;48.884;8.338;2023-12-20T03:00:50;100418.09;;;7.07;100.00
10881;BME280;5493;48.884;8.338;2023-12-20T03:03:17;100418.84;;;7.22;100.00
10881;BME280;5493;48.884;8.338;2023-12-20T03:05:45;100421.88;;;7.12;100.00
10881;BME280;5493;48.884;8.338;2023-12-20T03:08:11;100417.88;;;7.02;100.00
10881;BME280;5493;48.884;8.338;2023-12-20T03:10:38;100435.78;;;7.22;100.00
10881;BME280;5493;48.884;8.338;2023-12-20T03:13:05;100432.88;;;7.24;100.00
10881;BME280;5493;48.884;8.338;2023-12-20T03:15:32;100442.53;;;7.18;100.00
10881;BME280;5493;48.884;8.338;2023-12-20T03:17:59;100436.53;;;7.16;100.00
10881;BME280;5493;48.884;8.338;2023-12-20T03:20:25;100438.84;;;7.19;100.00
10881;BME280;5493;48.884;8.338;2023-12-20T03:22:52;100438.00;;;7.19;100.00
10881;BME280;5493;48.884;8.338;2023-12-20T03:25:18;100428.13;;;7.19;100.00
10881;BME280;5493;48.884;8.338;2023-12-20T03:27:45;100413.97;;;7.04;100.00
10881;BME280;5493;48.884;8.338;2023-12-20T03:30:13;100420.59;;;7.08;100.00
10881;BME280;5493;48.884;8.338;2023-12-20T03:32:40;100424.66;;;7.25;100.00
10881;BME280;5493;48.884;8.338;2023-12-20T03:35:06;100431.31;;;7.08;100.00
10881;BME280;5493;48.884;8.338;2023-12-20T03:37:33;100416.88;;;7.09;100.00
10881;BME280;5493;48.884;8.338;2023-12-20T03:39:59;100426.50;;;7.25;100.00
10881;BME280;5493;48.884;8.338;2023-12-20T03:42:26;100420.66;;;7.15;100.00
10881;BME280;5493;48.884;8.338;2023-12-20T03:44:52;100410.31;;;7.12;100.00
10881;BME280;5493;48.884;8.338;2023-12-20T03:47:20;100417.13;;;7.14;100.00
10881;BME280;5493;48.884;8.338;2023-12-20T03:49:47;100426.84;;;7.15;100.00
10881;BME280;5493;48.884;8.338;2023-12-20T03:52:14;100429.72;;;7.14;100.00
10881;BME280;5493;48.884;8.338;2023-12-20T03:54:40;100432.97;;;7.09;100.00
10881;BME280;5493;48.884;8.338;2023-12-20T03:57:07;100434.06;;;7.15;100.00
10881;BME280;5493;48.884;8.338;2023-12-20T03:59:35;100427.28;;;7.19;100.00
10881;BME280;5493;48.884;8.338;2023-12-20T04:02:02;100439.69;;;6.99;100.00
10881;BME280;5493;48.884;8.338;2023-12-20T04:04:30;100443.47;;;7.04;100.00
10881;BME280;5493;48.884;8.338;2023-12-20T04:06:56;100437.81;;;7.20;100.00
10881;BME280;5493;48.884;8.338;2023-12-20T04:09:23;100438.91;;;7.26;100.00
10881;BME280;5493;48.884;8.338;2023-12-20T04:11:49;100445.47;;;7.23;100.00
10881;BME280;5493;48.884;8.338;2023-12-20T04:14:16;100446.09;;;7.25;100.00
10881;BME280;5493;48.884;8.338;2023-12-20T04:16:42;100445.22;;;7.18;100.00
10881;BME280;5493;48.884;8.338;2023-12-20T04:19:09;100444.75;;;7.36;100.00
10881;BME280;5493;48.884;8.338;2023-12-20T04:21:37;100442.00;;;7.29;100.00
10881;BME280;5493;48.884;8.338;2023-12-20T04:24:03;100441.16;;;7.01;100.00
10881;BME280;5493;48.884;8.338;2023-12-20T04:26:30;100445.63;;;7.15;100.00
10881;BME280;5493;48.884;8.338;2023-12-20T04:28:57;100453.31;;;7.25;100.00
10881;BME280;5493;48.884;8.338;2023-12-20T04:31:23;100446.75;;;7.06;100.00
10881;BME280;5493;48.884;8.338;2023-12-20T04:33:50;100459.13;;;7.28;100.00
10881;BME280;5493;48.884;8.338;2023-12-20T04:36:16;100431.84;;;6.97;100.00
10881;BME280;5493;48.884;8.338;2023-12-20T04:38:44;100473.31;;;7.22;100.00
10881;BME280;5493;48.884;8.338;2023-12-20T04:41:10;100467.75;;;7.03;100.00
10881;BME280;5493;48.884;8.338;2023-12-20T04:43:41;100462.97;;;7.19;100.00
10881;BME280;5493;48.884;8.338;2023-12-20T04:46:07;100471.19;;;7.18;100.00
10881;BME280;5493;48.884;8.338;2023-12-20T04:48:34;100476.81;;;7.23;100.00
10881;BME280;5493;48.884;8.338;2023-12-20T04:51:00;100467.16;;;7.28;100.00
10881;BME280;5493;48.884;8.338;2023-12-20T04:53:27;100457.84;;;7.24;100.00
10881;BME280;5493;48.884;8.338;2023-12-20T04:55:55;100470.16;;;7.40;100.00
10881;BME280;5493;48.884;8.338;2023-12-20T04:58:21;100468.63;;;7.31;100.00
10881;BME280;5493;48.884;8.338;2023-12-20T05:00:48;100478.00;;;7.41;100.00
10881;BME280;5493;48.884;8.338;2023-12-20T05:03:14;100475.47;;;7.33;100.00
10881;BME280;5493;48.884;8.338;2023-12-20T05:05:41;100484.53;;;7.32;100.00
10881;BME280;5493;48.884;8.338;2023-12-20T05:08:07;100474.00;;;7.31;100.00
10881;BME280;5493;48.884;8.338;2023-12-20T05:10:34;100479.44;;;7.37;100.00
10881;BME280;5493;48.884;8.338;2023-12-20T05:13:03;100474.44;;;7.34;100.00
10881;BME280;5493;48.884;8.338;2023-12-20T05:15:29;100480.53;;;7.22;100.00
10881;BME280;5493;48.884;8.338;2023-12-20T05:17:56;100490.72;;;7.33;100.00
10881;BME280;5493;48.884;8.338;2023-12-20T05:20:22;100486.44;;;7.38;100.00
10881;BME280;5493;48.884;8.338;2023-12-20T05:22:49;100477.75;;;7.36;100.00
10881;BME280;5493;48.884;8.338;2023-12-20T05:25:16;100480.56;;;7.28;100.00
10881;BME280;5493;48.884;8.338;2023-12-20T05:27:42;100492.41;;;7.34;100.00
10881;BME280;5493;48.884;8.338;2023-12-20T05:30:11;100488.84;;;7.27;100.00
10881;BME280;5493;48.884;8.338;2023-12-20T05:32:38;100494.50;;;7.17;100.00
10881;BME280;5493;48.884;8.338;2023-12-20T05:35:04;100500.06;;;7.16;100.00
10881;BME280;5493;48.884;8.338;2023-12-20T05:37:31;100504.22;;;7.18;100.00
10881;BME280;5493;48.884;8.338;2023-12-20T05:39:58;100512.69;;;7.22;100.00
10881;BME280;5493;48.884;8.338;2023-12-20T05:42:24;100517.56;;;7.33;100.00
10881;BME280;5493;48.884;8.338;2023-12-20T05:44:51;100519.00;;;7.35;100.00
10881;BME280;5493;48.884;8.338;2023-12-20T05:47:19;100518.78;;;7.30;100.00
10881;BME280;5493;48.884;8.338;2023-12-20T05:49:45;100515.69;;;7.33;100.00
10881;BME280;5493;48.884;8.338;2023-12-20T05:52:12;100520.34;;;7.25;100.00
10881;BME280;5493;48.884;8.338;2023-12-20T05:54:38;100522.81;;;7.20;100.00
10881;BME280;5493;48.884;8.338;2023-12-20T05:57:05;100520.72;;;7.43;100.00
10881;BME280;5493;48.884;8.338;2023-12-20T05:59:31;100508.13;;;7.16;100.00
10881;BME280;5493;48.884;8.338;2023-12-20T06:01:59;100522.41;;;7.23;100.00
10881;BME280;5493;48.884;8.338;2023-12-20T06:04:27;100531.97;;;7.11;100.00
10881;BME280;5493;48.884;8.338;2023-12-20T06:06:54;100529.41;;;7.24;100.00
10881;BME280;5493;48.884;8.338;2023-12-20T06:09:20;100539.13;;;7.25;100.00
10881;BME280;5493;48.884;8.338;2023-12-20T06:11:47;100544.00;;;7.15;100.00
10881;BME280;5493;48.884;8.338;2023-12-20T06:14:13;100552.66;;;7.38;100.00
10881;BME280;5493;48.884;8.338;2023-12-20T06:16:40;100550.31;;;7.28;100.00
10881;BME280;5493;48.884;8.338;2023-12-20T06:19:06;100565.56;;;7.28;100.00
10881;BME280;5493;48.884;8.338;2023-12-20T06:21:34;100551.59;;;7.32;100.00
10881;BME280;5493;48.884;8.338;2023-12-20T06:24:01;100563.69;;;7.50;100.00
10881;BME280;5493;48.884;8.338;2023-12-20T06:26:27;100571.63;;;7.36;100.00
10881;BME280;5493;48.884;8.338;2023-12-20T06:28:54;100563.38;;;7.38;100.00
10881;BME280;5493;48.884;8.338;2023-12-20T06:31:21;100568.84;;;7.45;100.00
10881;BME280;5493;48.884;8.338;2023-12-20T06:33:47;100572.97;;;7.47;100.00
10881;BME280;5493;48.884;8.338;2023-12-20T06:36:22;100579.56;;;7.45;100.00
10881;BME280;5493;48.884;8.338;2023-12-20T06:38:50;100578.97;;;7.49;100.00
10881;BME280;5493;48.884;8.338;2023-12-20T06:41:16;100568.84;;;7.45;100.00
10881;BME280;5493;48.884;8.338;2023-12-20T06:43:43;100579.63;;;7.51;100.00
10881;BME280;5493;48.884;8.338;2023-12-20T06:46:10;100577.47;;;7.68;100.00
10881;BME280;5493;48.884;8.338;2023-12-20T06:48:38;100577.25;;;7.63;100.00
10881;BME280;5493;48.884;8.338;2023-12-20T06:51:05;100591.47;;;7.63;100.00
10881;BME280;5493;48.884;8.338;2023-12-20T06:53:32;100575.38;;;7.63;100.00
10881;BME280;5493;48.884;8.338;2023-12-20T06:56:00;100568.50;;;7.54;100.00
10881;BME280;5493;48.884;8.338;2023-12-20T06:58:26;100594.16;;;7.63;100.00
10881;BME280;5493;48.884;8.338;2023-12-20T07:00:53;100593.28;;;7.56;100.00
10881;BME280;5493;48.884;8.338;2023-12-20T07:03:19;100608.88;;;7.46;100.00
10881;BME280;5493;48.884;8.338;2023-12-20T07:05:46;100623.38;;;7.73;100.00
10881;BME280;5493;48.884;8.338;2023-12-20T07:08:12;100621.31;;;7.75;100.00
10881;BME280;5493;48.884;8.338;2023-12-20T07:10:40;100628.25;;;7.63;100.00
10881;BME280;5493;48.884;8.338;2023-12-20T07:13:08;100634.28;;;7.71;100.00
10881;BME280;5493;48.884;8.338;2023-12-20T07:15:35;100646.06;;;7.91;100.00
10881;BME280;5493;48.884;8.338;2023-12-20T07:18:02;100644.28;;;7.77;100.00
10881;BME280;5493;48.884;8.338;2023-12-20T07:20:28;100648.53;;;7.72;100.00
10881;BME280;5493;48.884;8.338;2023-12-20T07:22:54;100651.28;;;7.78;100.00
10881;BME280;5493;48.884;8.338;2023-12-20T07:25:21;100642.28;;;7.65;100.00
10881;BME280;5493;48.884;8.338;2023-12-20T07:27:47;100651.72;;;7.61;100.00
10881;BME280;5493;48.884;8.338;2023-12-20T07:30:15;100649.69;;;7.63;100.00
10881;BME280;5493;48.884;8.338;2023-12-20T07:32:42;100654.47;;;7.46;100.00
10881;BME280;5493;48.884;8.338;2023-12-20T07:35:09;100652.09;;;7.36;100.00
10881;BME280;5493;48.884;8.338;2023-12-20T07:37:35;100646.50;;;7.17;100.00
10881;BME280;5493;48.884;8.338;2023-12-20T07:40:02;100653.81;;;7.23;100.00
10881;BME280;5493;48.884;8.338;2023-12-20T07:42:28;100652.59;;;7.25;100.00
10881;BME280;5493;48.884;8.338;2023-12-20T07:44:55;100664.09;;;7.19;100.00
10881;BME280;5493;48.884;8.338;2023-12-20T07:47:23;100664.19;;;7.11;100.00
10881;BME280;5493;48.884;8.338;2023-12-20T07:49:50;100655.22;;;7.04;100.00
10881;BME280;5493;48.884;8.338;2023-12-20T07:52:17;100663.06;;;7.06;100.00
10881;BME280;5493;48.884;8.338;2023-12-20T07:54:44;100663.00;;;6.84;100.00
10881;BME280;5493;48.884;8.338;2023-12-20T07:57:11;100663.72;;;7.08;100.00
10881;BME280;5493;48.884;8.338;2023-12-20T07:59:38;100674.47;;;6.93;100.00
10881;BME280;5493;48.884;8.338;2023-12-20T08:02:04;100672.16;;;7.05;100.00
10881;BME280;5493;48.884;8.338;2023-12-20T08:04:33;100683.34;;;6.93;100.00
10881;BME280;5493;48.884;8.338;2023-12-20T08:06:59;100682.28;;;7.09;100.00
10881;BME280;5493;48.884;8.338;2023-12-20T08:09:26;100683.59;;;6.99;100.00
10881;BME280;5493;48.884;8.338;2023-12-20T08:11:53;100684.16;;;7.09;100.00
10881;BME280;5493;48.884;8.338;2023-12-20T08:14:19;100683.16;;;6.95;100.00
10881;BME280;5493;48.884;8.338;2023-12-20T08:16:45;100694.06;;;6.79;100.00
10881;BME280;5493;48.884;8.338;2023-12-20T08:19:12;100697.22;;;6.82;100.00
10881;BME280;5493;48.884;8.338;2023-12-20T08:21:40;100689.09;;;6.76;100.00
10881;BME280;5493;48.884;8.338;2023-12-20T08:24:08;100699.44;;;6.79;100.00
10881;BME280;5493;48.884;8.338;2023-12-20T08:26:34;100696.09;;;6.91;100.00
10881;BME280;5493;48.884;8.338;2023-12-20T08:29:01;100695.84;;;6.72;100.00
10881;BME280;5493;48.884;8.338;2023-12-20T08:31:27;100696.28;;;6.75;100.00
10881;BME280;5493;48.884;8.338;2023-12-20T08:33:54;100700.53;;;6.84;100.00
10881;BME280;5493;48.884;8.338;2023-12-20T08:36:20;100700.06;;;6.81;100.00
10881;BME280;5493;48.884;8.338;2023-12-20T08:38:49;100693.88;;;6.95;100.00
10881;BME280;5493;48.884;8.338;2023-12-20T08:41:16;100707.84;;;6.90;100.00
10881;BME280;5493;48.884;8.338;2023-12-20T08:43:43;100714.31;;;6.96;100.00
10881;BME280;5493;48.884;8.338;2023-12-20T08:46:09;100709.69;;;7.05;100.00
10881;BME280;5493;48.884;8.338;2023-12-20T08:48:36;100715.31;;;7.10;100.00
10881;BME280;5493;48.884;8.338;2023-12-20T08:51:03;100709.78;;;7.11;100.00
10881;BME280;5493;48.884;8.338;2023-12-20T08:53:32;100713.28;;;7.26;100.00
10881;BME280;5493;48.884;8.338;2023-12-20T08:56:00;100716.44;;;7.15;100.00
10881;BME280;5493;48.884;8.338;2023-12-20T08:58:27;100703.47;;;7.19;100.00
10881;BME280;5493;48.884;8.338;2023-12-20T09:00:53;100707.47;;;7.08;100.00
10881;BME280;5493;48.884;8.338;2023-12-20T09:03:20;100714.72;;;7.29;100.00
10881;BME280;5493;48.884;8.338;2023-12-20T09:05:46;100707.53;;;7.29;100.00
10881;BME280;5493;48.884;8.338;2023-12-20T09:08:13;100695.03;;;7.36;100.00
10881;BME280;5493;48.884;8.338;2023-12-20T09:10:39;100700.56;;;7.35;100.00
10881;BME280;5493;48.884;8.338;2023-12-20T09:13:07;100708.44;;;7.36;100.00
10881;BME280;5493;48.884;8.338;2023-12-20T09:15:33;100705.69;;;7.15;100.00
10881;BME280;5493;48.884;8.338;2023-12-20T09:18:01;100702.06;;;7.37;100.00
10881;BME280;5493;48.884;8.338;2023-12-20T09:20:27;100684.47;;;7.35;100.00
10881;BME280;5493;48.884;8.338;2023-12-20T09:22:54;100698.06;;;7.48;100.00
10881;BME280;5493;48.884;8.338;2023-12-20T09:25:20;100688.47;;;7.24;100.00
10881;BME280;5493;48.884;8.338;2023-12-20T09:27:48;100700.91;;;7.47;100.00
10881;BME280;5493;48.884;8.338;2023-12-20T09:30:16;100703.63;;;7.32;100.00
10881;BME280;5493;48.884;8.338;2023-12-20T09:32:42;100692.75;;;7.55;100.00
10881;BME280;5493;48.884;8.338;2023-12-20T09:35:09;100691.69;;;7.70;100.00
10881;BME280;5493;48.884;8.338;2023-12-20T09:37:39;100696.75;;;7.44;100.00
10881;BME280;5493;48.884;8.338;2023-12-20T09:40:11;100698.28;;;7.53;100.00
10881;BME280;5493;48.884;8.338;2023-12-20T09:42:47;100699.03;;;7.62;100.00
10881;BME280;5493;48.884;8.338;2023-12-20T09:45:20;100701.88;;;7.81;100.00
10881;BME280;5493;48.884;8.338;2023-12-20T09:47:47;100705.78;;;7.58;100.00
10881;BME280;5493;48.884;8.338;2023-12-20T09:50:14;100708.78;;;7.48;100.00
10881;BME280;5493;48.884;8.338;2023-12-20T09:52:41;100702.03;;;7.52;100.00
10881;BME280;5493;48.884;8.338;2023-12-20T09:55:09;100705.44;;;7.46;100.00
10881;BME280;5493;48.884;8.338;2023-12-20T09:57:40;100706.50;;;7.87;100.00
10881;BME280;5493;48.884;8.338;2023-12-20T10:00:11;100702.66;;;7.54;100.00
10881;BME280;5493;48.884;8.338;2023-12-20T10:02:44;100709.09;;;7.60;100.00
10881;BME280;5493;48.884;8.338;2023-12-20T10:05:16;100707.78;;;7.70;100.00
10881;BME280;5493;48.884;8.338;2023-12-20T10:07:44;100697.91;;;7.56;100.00
10881;BME280;5493;48.884;8.338;2023-12-20T10:10:24;100713.22;;;7.77;100.00
10881;BME280;5493;48.884;8.338;2023-12-20T10:13:03;100707.13;;;7.68;100.00
10881;BME280;5493;48.884;8.338;2023-12-20T10:15:31;100710.72;;;7.75;100.00
10881;BME280;5493;48.884;8.338;2023-12-20T10:17:59;100705.63;;;7.80;100.00
10881;BME280;5493;48.884;8.338;2023-12-20T10:20:26;100691.97;;;7.61;100.00
10881;BME280;5493;48.884;8.338;2023-12-20T10:22:54;100688.63;;;7.73;100.00
10881;BME280;5493;48.884;8.338;2023-12-20T10:25:21;100687.97;;;7.92;100.00
10881;BME280;5493;48.884;8.338;2023-12-20T10:27:47;100679.22;;;7.84;100.00
10881;BME280;5493;48.884;8.338;2023-12-20T10:30:14;100673.72;;;7.71;100.00
10881;BME280;5493;48.884;8.338;2023-12-20T10:32:40;100670.78;;;7.87;100.00
10881;BME280;5493;48.884;8.338;2023-12-20T10:35:09;100674.09;;;8.10;100.00
10881;BME280;5493;48.884;8.338;2023-12-20T10:37:36;100665.75;;;7.77;100.00
10881;BME280;5493;48.884;8.338;2023-12-20T10:40:04;100672.00;;;7.84;100.00
10881;BME280;5493;48.884;8.338;2023-12-20T10:42:32;100669.47;;;8.04;100.00
10881;BME280;5493;48.884;8.338;2023-12-20T10:44:59;100671.63;;;7.87;100.00
10881;BME280;5493;48.884;8.338;2023-12-20T10:47:26;100676.97;;;7.87;100.00
10881;BME280;5493;48.884;8.338;2023-12-20T10:49:54;100680.03;;;7.63;100.00
10881;BME280;5493;48.884;8.338;2023-12-20T10:52:23;100657.03;;;7.75;100.00
10881;BME280;5493;48.884;8.338;2023-12-20T10:54:49;100633.75;;;8.04;100.00
10881;BME280;5493;48.884;8.338;2023-12-20T10:57:18;100634.78;;;7.81;100.00
10881;BME280;5493;48.884;8.338;2023-12-20T10:59:45;100634.72;;;7.75;100.00
10881;BME280;5493;48.884;8.338;2023-12-20T11:02:13;100633.53;;;7.77;100.00
10881;BME280;5493;48.884;8.338;2023-12-20T11:04:46;100634.22;;;7.86;100.00
10881;BME280;5493;48.884;8.338;2023-12-20T11:07:19;100626.00;;;8.15;100.00
10881;BME280;5493;48.884;8.338;2023-12-20T11:09:56;100620.88;;;8.20;100.00
10881;BME280;5493;48.884;8.338;2023-12-20T11:12:34;100627.66;;;8.16;100.00
10881;BME280;5493;48.884;8.338;2023-12-20T11:15:03;100622.84;;;8.33;100.00
10881;BME280;5493;48.884;8.338;2023-12-20T11:17:31;100617.75;;;8.17;100.00
10881;BME280;5493;48.884;8.338;2023-12-20T11:20:15;100619.00;;;7.93;100.00
10881;BME280;5493;48.884;8.338;2023-12-20T11:22:52;100615.56;;;7.99;100.00
10881;BME280;5493;48.884;8.338;2023-12-20T11:25:20;100624.09;;;8.09;100.00
10881;BME280;5493;48.884;8.338;2023-12-20T11:28:09;100618.75;;;8.16;100.00
10881;BME280;5493;48.884;8.338;2023-12-20T11:30:41;100610.13;;;8.20;100.00
10881;BME280;5493;48.884;8.338;2023-12-20T11:33:07;100626.66;;;7.96;100.00
10881;BME280;5493;48.884;8.338;2023-12-20T11:35:41;100628.31;;;8.25;100.00
10881;BME280;5493;48.884;8.338;2023-12-20T11:38:08;100617.75;;;8.17;100.00
10881;BME280;5493;48.884;8.338;2023-12-20T11:40:37;100617.75;;;8.17;100.00
10881;BME280;5493;48.884;8.338;2023-12-20T11:43:04;100598.91;;;8.10;100.00
10881;BME280;5493;48.884;8.338;2023-12-20T11:45:30;100597.06;;;7.89;100.00
10881;BME280;5493;48.884;8.338;2023-12-20T11:47:57;100610.09;;;7.92;100.00
10881;BME280;5493;48.884;8.338;2023-12-20T11:50:24;100603.31;;;7.97;100.00
10881;BME280;5493;48.884;8.338;2023-12-20T11:52:52;100616.25;;;7.86;100.00
10881;BME280;5493;48.884;8.338;2023-12-20T11:55:19;100618.06;;;7.79;100.00
10881;BME280;5493;48.884;8.338;2023-12-20T11:57:47;100618.31;;;7.84;100.00
10881;BME280;5493;48.884;8.338;2023-12-20T12:00:24;100623.50;;;7.65;100.00
10881;BME280;5493;48.884;8.338;2023-12-20T12:02:56;100627.94;;;8.00;100.00
10881;BME280;5493;48.884;8.338;2023-12-20T12:05:22;100624.16;;;7.67;100.00
10881;BME280;5493;48.884;8.338;2023-12-20T12:07:49;100615.78;;;8.04;100.00
10881;BME280;5493;48.884;8.338;2023-12-20T12:10:15;100623.00;;;8.04;100.00
10881;BME280;5493;48.884;8.338;2023-12-20T12:12:42;100609.53;;;7.97;100.00
10881;BME280;5493;48.884;8.338;2023-12-20T12:15:10;100600.00;;;7.95;100.00
10881;BME280;5493;48.884;8.338;2023-12-20T12:17:36;100605.91;;;7.83;100.00
10881;BME280;5493;48.884;8.338;2023-12-20T12:20:05;100591.00;;;8.02;100.00
10881;BME280;5493;48.884;8.338;2023-12-20T12:22:32;100597.66;;;7.85;100.00
10881;BME280;5493;48.884;8.338;2023-12-20T12:24:59;100602.94;;;8.00;100.00
10881;BME280;5493;48.884;8.338;2023-12-20T12:27:27;100603.75;;;8.00;100.00
10881;BME280;5493;48.884;8.338;2023-12-20T12:30:00;100592.88;;;8.08;100.00
10881;BME280;5493;48.884;8.338;2023-12-20T12:32:32;100598.00;;;8.03;100.00
10881;BME280;5493;48.884;8.338;2023-12-20T12:34:59;100589.28;;;7.95;100.00
10881;BME280;5493;48.884;8.338;2023-12-20T12:37:25;100592.53;;;8.18;100.00
10881;BME280;5493;48.884;8.338;2023-12-20T12:39:53;100589.69;;;8.26;100.00
10881;BME280;5493;48.884;8.338;2023-12-20T12:42:22;100586.97;;;8.19;100.00
10881;BME280;5493;48.884;8.338;2023-12-20T12:44:53;100574.44;;;7.99;100.00
10881;BME280;5493;48.884;8.338;2023-12-20T12:47:20;100581.66;;;7.98;100.00
10881;BME280;5493;48.884;8.338;2023-12-20T12:49:49;100595.31;;;7.75;100.00
10881;BME280;5493;48.884;8.338;2023-12-20T12:52:32;100596.97;;;7.76;100.00
10881;BME280;5493;48.884;8.338;2023-12-20T12:54:58;100586.69;;;7.80;100.00
10881;BME280;5493;48.884;8.338;2023-12-20T12:57:25;100582.38;;;7.85;100.00
10881;BME280;5493;48.884;8.338;2023-12-20T12:59:51;100583.88;;;7.88;100.00
10881;BME280;5493;48.884;8.338;2023-12-20T13:02:19;100592.88;;;7.80;100.00